15:16
Airports
History
Links
Donate
Help keep this website running!
PayPal
Bitcoin
This page is community maintained. The information is intended for PC simulator navigation or reference.
Always use approved charts for navigation.
SJTQ
Fazenda Santa Tereza
Fazenda Santa Tereza (SJTQ)
PetrĂ³polis, Rio de Janeiro, Brazil
4
Lat/Lng:22° 22' 8" S / 43° 15' 5" W
-22.368889 / -43.251389
Elevation:2087'ft / 636mMSL
ID / ICAO:SJTQ
Runways:1
Longest:02-20
Grass 579m / 1,901ft
Nearby Weather15:00 GMT 2018-01-16
Nearby weather at SBGL, Galeao Antonio Carlos Jombim located 30.5 nautical miles from SJTQ
Altimeter: 29.94
Visibility: 6.2 statute miles
Wind: 9 knots (from 130°)
Temp: 33°c / 91°f
Humidity: 38.5%

METAR: SBGL 161500Z 13009KT 9999 FEW025 33/17 Q1014

(Powered by phpweather)
Runway 02 / 20
Dimensions:579.4 x 20.1m 1901' x 66'ft
Surface:Grass
Runway 02 [A]Runway 20 [B]
Heading:358°TH 178°TH
Lat:
Lng:
22° 22' 17.36"S
43° 15' 4.65"W
22° 21' 58.64"S
43° 15' 5.35"W
User Notes and Comments
22° 22' 8" S / 43° 15' 5" W
Distance To
Airport ID:
Nearby Airports
(U) AEROCLUBE NOVA IGUACU 29.2 NM
SDNY SSW 207°
(C) Galeao Antonio Carlos Jombim 30.5 NM
SBGL ( WX ) S 178°
4 Valenca 30.8 NM
SDVL WNW 286°
4 Fazenda Ribeirao 33.6 NM
SIFU W 264°
(C) Campo Delio Jardim de Mattos 36.0 NM
SBAF ( WX ) SSW 193°
4 Faz do Rochedo 36.4 NM
SNJL N
(C) Santos-Dumont 37.8 NM
SBRJ ( WX ) S 171°
VFR Chart
Flight Planning at SkyVector.com